This demonstration page uses our WeatherBlox Daily Observations layout. Learn more.

Left ArrowRight Arrow

41.55636, -103.73856

Hourly Observations for June 8, 2015

Temp ( °F °C ) Dew Point ( °F °C ) Humidity (%) Winds ( mph kmh ) Pressure ( in mb ) Visibility ( mi km ) Precip ( " mm )
12:53 am 00:53 Clear 56 13.3 53 11.7 90 90 WNW 7 11 30.02 1017 10 16.0934 0 0
1:53 am 01:53 Clear 56 13.3 53 11.7 90 90 NW 8 13 30.03 1017 10 16.0934 0 0
2:53 am 02:53 Clear 54 12.2 51 10.6 90 90 NW 6 9 30.02 1017 10 16.0934 0 0
3:53 am 03:53 Clear 54 12.2 51 10.6 90 90 NW 8 13 30.03 1017 10 16.0934 0 0
4:53 am 04:53 Clear 54 12.2 50 10 87 87 NW 8 13 30.05 1018 10 16.0934 0 0
5:53 am 05:53 Sunny 54 12.2 50 10 87 87 NW 9 15 30.06 1018 10 16.0934 0 0
6:53 am 06:53 Sunny 57 13.9 52 11.1 83 83 NW 9 15 30.05 1018 10 16.0934 0 0
7:53 am 07:53 Sunny 61 16.1 54 12.2 78 78 WNW 7 11 30.05 1018 10 16.0934 0 0
8:53 am 08:53 Sunny 67 19.4 54 12.2 63 63 WNW 7 11 30.04 1017 10 16.0934 0 0
9:53 am 09:53 Sunny 72 22.2 55 12.8 55 55 NW 8 13 30.03 1017 10 16.0934 0 0
10:53 am 10:53 Sunny 75 23.9 55 12.8 50 50 WNW 5 7 30.02 1017 10 16.0934 0 0
11:53 am 11:53 Sunny 78 25.6 53 11.7 42 42 Calm 30 1016 10 16.0934 0 0
12:53 pm 12:53 Sunny 79 26.1 54 12.2 42 42 VRB 6 9 29.98 1015 10 16.0934 0 0
1:53 pm 13:53 Sunny 81 27.2 53 11.7 38 38 VRB 7 11 29.97 1015 10 16.0934 0 0
2:53 pm 14:53 Sunny 83 28.3 45 7.2 26 26 undefined N/A 29.95 1014 10 16.0934 0 0
3:53 pm 15:53 Sunny 83 28.3 45 7.2 26 26 undefined N/A 29.94 1014 10 16.0934 0 0
4:53 pm 16:53 Sunny 84 28.9 48 8.9 29 29 W 7 11 29.92 1013 10 16.0934 0 0
5:53 pm 17:53 Sunny 83 28.3 49 9.4 31 31 W 5 7 29.9 1013 10 16.0934 0 0
6:53 pm 18:53 Sunny 82 27.8 56 13.3 41 41 SSW 3 6 29.9 1012 10 16.0934 0 0
7:53 pm 19:53 Sunny 77 25 56 13.3 48 48 SSE 6 9 29.9 1013 10 16.0934 0 0
8:53 pm 20:53 Clear 73 22.8 54 12.2 51 51 SE 7 11 29.9 1013 10 16.0934 0 0
9:53 pm 21:53 Clear 68 20 58 14.4 70 70 Calm 29.91 1013 10 16.0934 0 0
10:53 pm 22:53 Clear 65 18.3 58 14.4 78 78 ESE 6 9 29.91 1013 10 16.0934 0 0
11:53 pm 23:53 Clear 63 17.2 56 13.3 78 78 ENE 7 11 29.9 1013 10 16.0934 0 0

Powered by AerisWeather